Time;durP1;ratioP1;P1;durP2;ratioP2;P2;SDS_P1;SDS_P2;PMS_P1;PMS_P2;Temp;Humidity;BMP_temperature;BMP_pressure;BME280_temperature;BME280_humidity;BME280_pressure;Samples;Min_cycle;Max_cycle;Signal;HPM_P1;HPM_P2
2022/05/31 00:01:35;;;;;;;6.95;3.65;;;13.30;99.90;;;;;;5015938;28;20171;-80
2022/05/31 00:04:01;;;;;;;11.27;3.17;;;13.10;99.90;;;;;;4997604;28;20584;-80
2022/05/31 00:06:27;;;;;;;6.07;3.45;;;13.00;99.90;;;;;;5015458;28;20160;-81
2022/05/31 00:08:53;;;;;;;15.40;4.70;;;13.10;99.90;;;;;;5014925;28;20573;-80
2022/05/31 00:11:19;;;;;;;5.28;4.03;;;13.10;99.90;;;;;;5015585;28;20168;-80
2022/05/31 00:13:45;;;;;;;7.65;4.18;;;13.30;99.90;;;;;;4997529;28;20542;-79
2022/05/31 00:16:11;;;;;;;8.80;3.92;;;13.20;99.90;;;;;;5015713;28;20201;-81
2022/05/31 00:18:37;;;;;;;6.53;3.75;;;13.30;99.90;;;;;;4997370;28;20286;-80
2022/05/31 00:21:04;;;;;;;4.95;4.35;;;13.40;99.90;;;;;;5015394;28;20195;-81
2022/05/31 00:23:30;;;;;;;11.57;4.28;;;13.20;99.90;;;;;;5015370;28;20180;-80
2022/05/31 00:25:56;;;;;;;4.38;3.80;;;13.10;99.90;;;;;;4997481;28;20176;-80
2022/05/31 00:28:21;;;;;;;4.30;3.42;;;13.10;99.90;;;;;;4997492;28;20192;-80
2022/05/31 00:30:47;;;;;;;9.93;3.97;;;13.00;99.90;;;;;;5020140;28;20169;-80
2022/05/31 00:33:13;;;;;;;5.68;4.38;;;13.10;99.90;;;;;;5022934;28;20187;-80
2022/05/31 00:35:41;;;;;;;9.00;3.63;;;13.10;99.90;;;;;;5002539;28;20767;-80
2022/05/31 00:38:08;;;;;;;4.93;3.90;;;13.00;99.90;;;;;;5003382;28;20185;-80
2022/05/31 00:40:36;;;;;;;10.73;4.25;;;13.00;99.90;;;;;;5014096;28;20247;-80
2022/05/31 00:43:16;;;;;;;4.85;4.03;;;12.90;99.90;;;;;;4996835;28;20168;-80
2022/05/31 00:45:47;;;;;;;7.00;4.57;;;13.00;99.90;;;;;;5014221;28;20589;-82
2022/05/31 00:48:23;;;;;;;6.70;3.78;;;12.80;99.90;;;;;;4996246;28;20188;-81
2022/05/31 00:50:53;;;;;;;4.72;4.25;;;12.90;99.90;;;;;;5014101;28;20171;-81
2022/05/31 00:53:30;;;;;;;7.20;4.57;;;13.00;99.90;;;;;;5013811;28;20505;-80
2022/05/31 00:55:59;;;;;;;5.57;5.07;;;12.90;99.90;;;;;;4996459;28;20574;-81
2022/05/31 00:58:45;;;;;;;6.78;3.75;;;12.90;99.90;;;;;;5013669;28;20669;-81
2022/05/31 01:01:13;;;;;;;14.13;4.20;;;13.00;99.90;;;;;;5013171;28;20195;-81
2022/05/31 01:03:41;;;;;;;8.68;3.78;;;13.20;99.90;;;;;;4996057;28;20223;-81
2022/05/31 01:06:10;;;;;;;6.03;4.30;;;13.20;99.90;;;;;;5014069;28;20161;-81
2022/05/31 01:08:36;;;;;;;6.90;4.53;;;12.90;99.90;;;;;;5013692;28;20299;-81
2022/05/31 01:11:02;;;;;;;5.93;4.10;;;13.00;99.90;;;;;;4996017;28;20256;-81
2022/05/31 01:13:28;;;;;;;9.95;3.65;;;13.10;99.90;;;;;;5014046;28;20689;-81
2022/05/31 01:16:06;;;;;;;4.68;3.35;;;13.30;99.90;;;;;;5013443;28;20208;-91
2022/05/31 01:18:32;;;;;;;5.50;4.10;;;13.40;99.90;;;;;;4995530;28;20183;-81
2022/05/31 01:21:00;;;;;;;6.80;3.97;;;13.50;99.90;;;;;;4995908;28;20173;-81
2022/05/31 01:23:30;;;;;;;5.28;4.35;;;13.40;99.90;;;;;;5013407;28;20181;-80
2022/05/31 01:26:21;;;;;;;6.40;4.03;;;13.50;99.90;;;;;;4995861;28;20164;-81
2022/05/31 01:29:16;;;;;;;5.50;4.10;;;13.30;99.90;;;;;;4995618;28;20184;-81
2022/05/31 01:32:03;;;;;;;5.03;3.58;;;13.40;99.90;;;;;;4995729;28;20177;-81
2022/05/31 01:34:48;;;;;;;4.38;3.65;;;13.60;99.90;;;;;;5012945;28;20172;-81
2022/05/31 01:37:14;;;;;;;5.60;3.25;;;13.30;99.90;;;;;;4995313;28;20171;-81
2022/05/31 01:39:55;;;;;;;7.90;3.65;;;13.20;99.90;;;;;;5013293;28;20196;-80
2022/05/31 01:42:40;;;;;;;4.55;3.28;;;13.20;99.90;;;;;;4995913;28;20672;-81
2022/05/31 01:45:12;;;;;;;5.45;4.50;;;13.40;99.90;;;;;;4995642;28;20169;-81
2022/05/31 01:47:38;;;;;;;6.10;4.03;;;13.60;99.90;;;;;;5013647;28;20175;-81
2022/05/31 01:50:09;;;;;;;5.78;4.05;;;13.50;99.90;;;;;;4995123;28;20203;-81
2022/05/31 01:52:35;;;;;;;5.03;3.95;;;13.30;99.90;;;;;;4995013;28;20226;-81
2022/05/31 01:55:02;;;;;;;3.75;3.20;;;13.20;99.90;;;;;;5012501;28;20283;-80
2022/05/31 01:57:30;;;;;;;4.30;3.75;;;13.30;99.90;;;;;;5012815;28;20161;-81
2022/05/31 02:00:05;;;;;;;12.77;4.07;;;13.50;99.90;;;;;;4995673;28;20251;-81
2022/05/31 02:02:31;;;;;;;5.18;3.88;;;13.60;99.90;;;;;;4979731;28;20176;-81
2022/05/31 02:04:56;;;;;;;8.43;4.00;;;13.60;99.90;;;;;;5011730;28;20571;-81
2022/05/31 02:07:24;;;;;;;7.75;3.15;;;13.60;99.90;;;;;;5012997;28;20230;-80
2022/05/31 02:09:51;;;;;;;10.43;3.90;;;13.50;99.90;;;;;;5012893;28;20188;-81
2022/05/31 02:12:19;;;;;;;4.75;3.33;;;13.40;99.90;;;;;;5013289;28;20637;-80
2022/05/31 02:14:45;;;;;;;6.50;3.72;;;13.50;99.90;;;;;;4995218;28;20274;-81
2022/05/31 02:17:11;;;;;;;5.05;3.38;;;13.60;99.90;;;;;;5013034;28;20663;-80
2022/05/31 02:19:37;;;;;;;6.93;4.30;;;13.80;99.90;;;;;;4995354;28;20191;-82
2022/05/31 02:22:07;;;;;;;4.93;4.03;;;13.90;99.90;;;;;;4995194;28;20638;-80
2022/05/31 02:24:33;;;;;;;6.57;4.45;;;13.80;99.90;;;;;;4995321;28;20176;-80
2022/05/31 02:27:00;;;;;;;7.10;3.63;;;13.80;99.90;;;;;;4995418;28;20169;-80
2022/05/31 02:29:29;;;;;;;3.72;3.25;;;13.80;99.90;;;;;;4994950;28;20197;-80
2022/05/31 02:31:57;;;;;;;7.78;4.15;;;13.70;99.90;;;;;;4994657;28;20643;-80
2022/05/31 02:34:26;;;;;;;7.88;4.30;;;13.50;99.90;;;;;;5012310;28;20252;-80
2022/05/31 02:36:52;;;;;;;8.45;3.55;;;13.50;99.90;;;;;;4995199;28;20188;-80
2022/05/31 02:39:19;;;;;;;4.22;3.78;;;13.60;99.90;;;;;;5012848;28;20181;-82
2022/05/31 02:41:45;;;;;;;8.55;3.55;;;13.60;99.90;;;;;;5012461;28;20215;-80
2022/05/31 02:44:12;;;;;;;6.80;4.10;;;13.60;99.90;;;;;;4995259;28;20734;-80
2022/05/31 02:46:38;;;;;;;3.75;3.35;;;13.50;99.90;;;;;;5013047;28;20251;-81
2022/05/31 02:49:06;;;;;;;3.75;3.45;;;13.60;99.90;;;;;;5012288;28;20219;-81
2022/05/31 02:51:37;;;;;;;7.00;3.90;;;13.70;99.90;;;;;;5012791;28;20169;-81
2022/05/31 02:54:04;;;;;;;5.15;3.80;;;13.70;99.90;;;;;;4994956;28;20172;-81
2022/05/31 02:56:30;;;;;;;3.90;3.50;;;13.80;99.90;;;;;;4995426;28;20275;-80
2022/05/31 02:58:56;;;;;;;6.10;3.67;;;13.60;99.90;;;;;;4995020;28;20184;-81
2022/05/31 03:01:31;;;;;;;5.63;3.67;;;13.60;99.90;;;;;;4995083;28;20176;-80
2022/05/31 03:03:57;;;;;;;6.90;3.13;;;13.60;99.90;;;;;;5012304;28;20649;-80
2022/05/31 03:06:24;;;;;;;3.65;3.35;;;13.50;99.90;;;;;;5012101;28;20256;-81
2022/05/31 03:08:50;;;;;;;5.10;3.50;;;13.50;99.90;;;;;;5012304;28;20219;-80
2022/05/31 03:11:56;;;;;;;5.88;4.03;;;13.40;99.90;;;;;;5012470;28;20533;-80
2022/05/31 03:14:21;;;;;;;8.15;3.63;;;13.40;99.90;;;;;;4995134;28;20575;-80
2022/05/31 03:16:54;;;;;;;5.72;3.88;;;13.50;99.90;;;;;;5013959;28;20169;-80
2022/05/31 03:19:26;;;;;;;7.95;3.95;;;13.40;99.90;;;;;;5015598;28;20192;-80
2022/05/31 03:21:59;;;;;;;7.75;3.60;;;13.60;99.90;;;;;;5015983;28;20629;-80
2022/05/31 03:24:33;;;;;;;3.63;3.33;;;13.60;99.90;;;;;;4998999;28;20542;-81
2022/05/31 03:27:02;;;;;;;4.47;3.95;;;13.60;99.90;;;;;;5016031;28;20526;-80
2022/05/31 03:29:28;;;;;;;5.43;3.47;;;13.50;99.90;;;;;;5015758;28;20199;-80
2022/05/31 03:31:55;;;;;;;3.78;3.08;;;13.40;99.90;;;;;;4997845;28;20551;-80
2022/05/31 03:34:21;;;;;;;8.57;4.13;;;13.60;99.90;;;;;;4998116;28;20187;-80
2022/05/31 03:36:47;;;;;;;4.72;3.45;;;13.70;99.90;;;;;;5015526;28;20583;-80
2022/05/31 03:39:12;;;;;;;5.00;2.95;;;13.70;99.90;;;;;;4997644;28;20550;-80
2022/05/31 03:41:38;;;;;;;4.30;3.47;;;13.60;99.90;;;;;;4997806;28;20179;-81
2022/05/31 03:44:04;;;;;;;5.88;3.55;;;13.40;99.90;;;;;;4997728;28;20230;-81
2022/05/31 03:46:30;;;;;;;5.93;3.58;;;13.30;99.90;;;;;;4997555;28;20668;-81
2022/05/31 03:48:56;;;;;;;4.50;3.70;;;13.30;99.90;;;;;;4997288;28;20192;-81
2022/05/31 03:51:22;;;;;;;5.63;3.80;;;13.30;99.90;;;;;;4997454;28;20172;-81
2022/05/31 03:53:47;;;;;;;6.95;3.55;;;13.20;99.90;;;;;;4997276;28;20621;-81
2022/05/31 03:56:13;;;;;;;5.45;3.38;;;13.10;99.90;;;;;;5014713;28;20211;-81
2022/05/31 03:58:40;;;;;;;9.82;3.17;;;13.10;99.90;;;;;;5014782;28;20271;-81
2022/05/31 04:01:06;;;;;;;5.40;2.88;;;12.90;99.90;;;;;;5014513;28;20179;-81
2022/05/31 04:03:32;;;;;;;10.25;4.00;;;12.80;99.90;;;;;;4996665;28;20181;-81
2022/05/31 04:05:58;;;;;;;13.60;3.58;;;12.90;99.90;;;;;;4996909;28;20253;-81
2022/05/31 04:08:25;;;;;;;9.80;3.88;;;13.00;99.90;;;;;;4997562;28;20350;-84
2022/05/31 04:10:51;;;;;;;4.40;3.35;;;13.30;99.90;;;;;;5015233;28;20251;-81
2022/05/31 04:13:17;;;;;;;3.63;3.25;;;13.60;99.90;;;;;;4997655;28;20179;-82
2022/05/31 04:15:44;;;;;;;7.47;4.15;;;13.60;99.90;;;;;;4996657;28;20262;-80
2022/05/31 04:18:10;;;;;;;6.28;3.90;;;13.70;99.90;;;;;;5014054;28;20188;-81
2022/05/31 04:20:41;;;;;;;8.07;3.88;;;13.50;99.90;;;;;;5014200;28;20168;-80
2022/05/31 04:26:02;;;;;;;5.00;3.55;;;13.60;99.90;;;;;;5014393;28;20182;-80
2022/05/31 04:28:27;;;;;;;7.80;3.85;;;13.60;99.90;;;;;;4995454;28;20184;-80
2022/05/31 04:30:53;;;;;;;11.57;4.40;;;13.70;99.90;;;;;;5014189;28;20165;-81
2022/05/31 04:33:19;;;;;;;4.43;3.50;;;13.30;99.90;;;;;;4996827;28;20164;-80
2022/05/31 04:35:44;;;;;;;7.15;3.92;;;13.20;99.90;;;;;;4996627;28;20274;-80
2022/05/31 04:38:10;;;;;;;8.40;4.32;;;13.20;99.90;;;;;;5013998;28;20661;-80
2022/05/31 04:40:39;;;;;;;5.78;3.90;;;13.50;99.90;;;;;;4996504;28;20181;-80
2022/05/31 04:43:05;;;;;;;13.05;4.47;;;13.40;99.90;;;;;;5014257;28;20171;-81
2022/05/31 04:45:31;;;;;;;8.93;4.10;;;13.40;99.90;;;;;;4997532;28;20539;-80
2022/05/31 04:47:57;;;;;;;12.63;5.45;;;13.30;99.90;;;;;;4997378;28;20191;-81
2022/05/31 04:50:25;;;;;;;10.68;4.25;;;13.60;99.90;;;;;;5008634;28;20172;-79
2022/05/31 04:52:51;;;;;;;7.28;4.28;;;13.60;99.90;;;;;;5007519;28;20164;-80
2022/05/31 04:55:16;;;;;;;11.88;4.15;;;13.70;99.90;;;;;;5017695;28;20207;-80
2022/05/31 04:57:42;;;;;;;5.63;4.05;;;13.80;99.90;;;;;;4997640;28;20580;-81
2022/05/31 05:00:08;;;;;;;14.10;5.13;;;13.90;99.90;;;;;;4996571;28;20169;-81
2022/05/31 05:02:34;;;;;;;17.25;4.97;;;13.90;99.90;;;;;;5014059;28;20169;-79
2022/05/31 05:05:00;;;;;;;8.95;4.57;;;14.00;99.90;;;;;;5013387;28;20214;-80
2022/05/31 05:07:29;;;;;;;21.83;4.95;;;14.30;99.90;;;;;;5013546;28;20203;-80
2022/05/31 05:09:54;;;;;;;4.68;4.15;;;14.30;99.90;;;;;;4996113;28;20172;-80
2022/05/31 05:12:20;;;;;;;4.82;4.22;;;14.00;99.90;;;;;;5013529;28;20528;-80
2022/05/31 05:14:46;;;;;;;13.38;4.38;;;13.90;99.90;;;;;;5012991;28;20239;-80
2022/05/31 05:17:11;;;;;;;7.32;4.72;;;13.90;99.90;;;;;;5013492;28;20583;-79
2022/05/31 05:19:37;;;;;;;7.60;4.55;;;14.20;99.90;;;;;;5013351;28;20246;-81
2022/05/31 05:22:03;;;;;;;6.30;5.18;;;14.40;99.90;;;;;;5013112;28;20169;-81
2022/05/31 05:24:28;;;;;;;7.18;4.40;;;14.40;99.90;;;;;;4995169;28;20172;-81
2022/05/31 05:26:54;;;;;;;6.97;4.18;;;14.30;99.90;;;;;;5013317;28;20196;-80
2022/05/31 05:32:08;;;;;;;8.10;4.47;;;14.20;99.90;;;;;;5013453;28;20184;-80
2022/05/31 05:34:33;;;;;;;9.90;4.45;;;14.20;99.90;;;;;;4995146;28;20160;-80
2022/05/31 05:36:59;;;;;;;6.90;3.95;;;14.30;99.90;;;;;;5013095;28;20169;-80
2022/05/31 05:39:25;;;;;;;12.05;4.72;;;14.40;99.90;;;;;;4995266;28;20189;-80
2022/05/31 05:41:50;;;;;;;7.03;4.75;;;14.70;99.90;;;;;;5013308;28;20231;-81
2022/05/31 05:44:16;;;;;;;19.65;4.80;;;14.70;99.90;;;;;;5012990;28;20169;-80
2022/05/31 05:46:43;;;;;;;6.72;4.40;;;14.90;99.90;;;;;;5013212;28;20164;-81
2022/05/31 05:49:09;;;;;;;15.45;4.70;;;15.10;99.90;;;;;;4995378;28;20195;-80
2022/05/31 05:51:34;;;;;;;17.63;5.00;;;15.20;99.90;;;;;;5012934;28;20536;-80
2022/05/31 05:54:03;;;;;;;14.63;5.13;;;15.20;99.90;;;;;;4994754;28;20649;-81
2022/05/31 05:56:29;;;;;;;12.38;4.78;;;15.30;99.90;;;;;;4994777;28;20207;-80
2022/05/31 05:58:55;;;;;;;15.60;5.90;;;15.40;99.90;;;;;;5012741;28;20180;-81
2022/05/31 06:01:44;;;;;;;65.32;8.63;;;15.50;99.90;;;;;;4994796;28;20645;-80
2022/05/31 06:04:23;;;;;;;48.13;8.07;;;15.70;99.90;;;;;;5012644;28;20168;-79
2022/05/31 06:06:57;;;;;;;83.38;10.30;;;15.80;99.90;;;;;;5013049;28;20164;-80
2022/05/31 06:09:24;;;;;;;12.75;4.95;;;15.90;99.90;;;;;;5011838;28;20290;-78
2022/05/31 06:11:54;;;;;;;13.32;4.93;;;15.70;99.90;;;;;;4995161;28;20199;-78
2022/05/31 06:14:25;;;;;;;14.32;5.22;;;15.80;99.90;;;;;;5012198;28;20164;-78
2022/05/31 06:16:59;;;;;;;28.38;4.63;;;16.00;99.90;;;;;;5012634;28;20181;-79
2022/05/31 06:19:31;;;;;;;9.35;5.18;;;15.90;99.90;;;;;;5012625;28;20582;-81
2022/05/31 06:21:56;;;;;;;13.73;4.65;;;15.70;99.90;;;;;;5012691;28;20673;-78
2022/05/31 06:24:27;;;;;;;9.18;4.90;;;15.70;99.90;;;;;;5012241;28;20215;-79
2022/05/31 06:26:52;;;;;;;22.00;5.50;;;15.90;99.90;;;;;;5012316;28;20287;-79
2022/05/31 06:29:18;;;;;;;15.05;5.68;;;16.20;99.90;;;;;;5012360;28;20263;-78
2022/05/31 06:31:43;;;;;;;13.30;4.88;;;16.70;99.90;;;;;;5012458;28;20169;-79
2022/05/31 06:34:10;;;;;;;8.63;5.10;;;17.00;99.90;;;;;;5012064;28;20168;-79
2022/05/31 06:36:35;;;;;;;24.58;5.10;;;17.10;99.90;;;;;;5011768;28;20210;-79
2022/05/31 06:39:01;;;;;;;13.48;5.25;;;17.40;99.90;;;;;;5012175;28;20196;-80
2022/05/31 06:41:27;;;;;;;23.08;5.05;;;17.70;99.90;;;;;;4994450;28;20169;-80
2022/05/31 06:43:52;;;;;;;19.58;5.95;;;17.50;99.90;;;;;;5011899;28;20177;-79
2022/05/31 06:46:19;;;;;;;12.65;4.97;;;17.30;99.90;;;;;;4994215;28;20164;-79
2022/05/31 06:48:45;;;;;;;8.80;5.55;;;17.40;99.90;;;;;;5012710;28;20192;-79
2022/05/31 06:51:13;;;;;;;16.20;5.70;;;17.80;99.90;;;;;;5013967;28;20641;-79
2022/05/31 06:59:08;;;;;;;33.72;5.55;;;19.20;99.90;;;;;;5015831;28;20191;-83
2022/05/31 07:01:37;;;;;;;13.70;5.32;;;20.80;99.90;;;;;;5016064;28;20203;-83
2022/05/31 07:04:04;;;;;;;7.25;5.10;;;22.20;99.90;;;;;;4998310;28;20218;-83
2022/05/31 07:06:32;;;;;;;19.67;5.78;;;22.00;99.90;;;;;;5016210;28;20175;-81
2022/05/31 07:08:57;;;;;;;8.38;5.82;;;22.90;99.90;;;;;;4995366;28;20222;-86
2022/05/31 07:11:23;;;;;;;24.67;6.78;;;22.80;99.90;;;;;;5015273;28;20604;-82
2022/05/31 07:13:49;;;;;;;15.20;6.70;;;23.50;99.90;;;;;;5017097;28;20171;-81
2022/05/31 07:16:15;;;;;;;15.90;6.00;;;23.60;99.90;;;;;;5037134;28;20243;-83
2022/05/31 07:18:41;;;;;;;8.32;5.35;;;24.00;99.90;;;;;;5035594;28;20230;-89
2022/05/31 07:21:07;;;;;;;16.02;5.47;;;24.40;99.90;;;;;;4992563;28;20177;-85
2022/05/31 07:23:34;;;;;;;11.95;4.82;;;25.40;99.90;;;;;;5009203;28;20247;-85
2022/05/31 07:26:02;;;;;;;14.50;3.72;;;25.90;98.00;;;;;;5020492;28;20206;-85
2022/05/31 07:28:28;;;;;;;13.00;4.25;;;26.20;97.40;;;;;;5027833;28;20189;-85
2022/05/31 07:30:55;;;;;;;12.15;3.20;;;26.00;96.00;;;;;;5000290;28;20215;-82
2022/05/31 07:33:20;;;;;;;12.45;3.97;;;25.60;96.50;;;;;;4997553;28;20606;-83
2022/05/31 07:35:47;;;;;;;11.52;3.38;;;26.50;95.30;;;;;;5006797;28;20231;-84
2022/05/31 07:38:12;;;;;;;13.60;3.50;;;26.50;94.70;;;;;;5028033;28;20230;-83
2022/05/31 07:40:38;;;;;;;5.05;3.03;;;26.10;94.30;;;;;;5014473;28;20180;-84
2022/05/31 07:43:04;;;;;;;16.67;3.10;;;24.80;95.10;;;;;;5015108;28;20176;-87
2022/05/31 07:45:29;;;;;;;14.25;4.15;;;24.20;95.60;;;;;;5008072;28;20574;-82
2022/05/31 07:47:55;;;;;;;6.32;2.60;;;23.40;96.30;;;;;;5014366;28;20204;-81
2022/05/31 07:50:21;;;;;;;11.30;2.40;;;22.90;96.90;;;;;;4999383;28;20191;-82
2022/05/31 07:52:47;;;;;;;17.83;4.43;;;22.00;97.60;;;;;;4998526;28;20165;-81
2022/05/31 07:55:14;;;;;;;23.58;2.75;;;21.60;98.10;;;;;;5015199;28;20703;-80
2022/05/31 08:00:24;;;;;;;24.40;3.83;;;20.50;98.70;;;;;;5026759;28;20201;-81
2022/05/31 08:02:50;;;;;;;7.43;2.67;;;20.00;99.80;;;;;;4998155;28;20173;-79
2022/05/31 08:05:16;;;;;;;6.22;3.08;;;19.70;99.90;;;;;;5019455;28;20552;-88
2022/05/31 08:07:41;;;;;;;9.10;3.15;;;19.30;99.90;;;;;;5014898;28;20206;-87
2022/05/31 08:10:08;;;;;;;6.38;2.28;;;19.20;99.90;;;;;;5030831;28;20585;-83
2022/05/31 08:12:34;;;;;;;9.25;2.65;;;19.20;99.90;;;;;;5034130;28;20652;-83
2022/05/31 08:15:01;;;;;;;12.93;3.00;;;19.30;99.90;;;;;;4999372;28;20201;-83
2022/05/31 08:17:27;;;;;;;2.75;2.47;;;19.20;99.90;;;;;;4995994;28;20185;-82
2022/05/31 08:19:54;;;;;;;23.48;3.60;;;19.10;99.90;;;;;;5021572;28;20168;-88
2022/05/31 08:22:20;;;;;;;5.57;2.42;;;19.00;99.90;;;;;;4996566;28;20211;-83
2022/05/31 08:24:46;;;;;;;71.57;7.45;;;19.10;99.90;;;;;;5013991;28;20184;-81
2022/05/31 08:27:13;;;;;;;6.45;2.30;;;18.90;99.90;;;;;;4997142;28;20180;-84
2022/05/31 08:29:39;;;;;;;3.95;2.67;;;19.20;99.90;;;;;;5014397;28;20649;-89
2022/05/31 08:32:06;;;;;;;3.88;2.08;;;19.40;99.90;;;;;;4996283;28;20189;-82
2022/05/31 08:34:33;;;;;;;3.53;2.45;;;19.50;99.90;;;;;;5018783;28;20174;-80
2022/05/31 08:36:59;;;;;;;3.47;1.73;;;19.60;99.90;;;;;;5019994;28;20191;-81
2022/05/31 08:39:24;;;;;;;3.17;1.90;;;19.40;99.90;;;;;;4980621;28;20283;-81
2022/05/31 08:41:56;;;;;;;4.55;1.63;;;19.50;99.90;;;;;;4994339;28;20312;-88
2022/05/31 08:44:37;;;;;;;4.93;2.03;;;19.60;99.90;;;;;;5002942;28;20230;-88
2022/05/31 08:47:38;;;;;;;3.53;1.98;;;19.70;99.90;;;;;;5014216;28;20176;-84
2022/05/31 08:53:10;;;;;;;4.30;2.17;;;19.60;99.90;;;;;;4994792;28;20176;-86
2022/05/31 08:58:45;;;;;;;12.48;1.98;;;19.70;99.90;;;;;;5012853;28;20320;-80
2022/05/31 09:01:13;;;;;;;2.13;1.48;;;19.70;99.20;;;;;;4997051;28;20183;-82
2022/05/31 09:03:53;;;;;;;20.63;3.38;;;19.80;99.90;;;;;;5015187;28;20164;-84
2022/05/31 09:06:47;;;;;;;6.80;1.67;;;19.80;99.90;;;;;;5015573;28;20212;-90
2022/05/31 09:09:19;;;;;;;2.83;1.88;;;20.00;99.70;;;;;;5003906;28;20215;-87
2022/05/31 09:11:56;;;;;;;6.38;1.58;;;20.20;99.90;;;;;;5014865;28;20259;-92
2022/05/31 09:14:45;;;;;;;4.57;1.65;;;20.30;99.90;;;;;;5015470;28;20176;-80
2022/05/31 09:17:23;;;;;;;5.55;1.65;;;20.50;99.20;;;;;;4991825;28;20219;-79
2022/05/31 09:19:52;;;;;;;4.55;1.83;;;20.60;99.30;;;;;;4995189;28;20200;-85
2022/05/31 09:22:17;;;;;;;7.18;1.90;;;20.50;99.60;;;;;;5001620;28;20256;-79
2022/05/31 09:24:45;;;;;;;5.32;1.70;;;20.30;98.90;;;;;;5006101;28;20181;-79
2022/05/31 09:27:21;;;;;;;3.97;1.55;;;20.50;99.90;;;;;;5004456;28;20173;-84
2022/05/31 09:30:10;;;;;;;2.75;1.60;;;20.70;97.70;;;;;;4985056;28;20196;-81
2022/05/31 09:32:47;;;;;;;2.47;1.60;;;20.70;98.20;;;;;;4977049;28;20185;-80
2022/05/31 09:35:41;;;;;;;2.90;1.88;;;20.90;98.20;;;;;;4993012;28;20273;-79
2022/05/31 09:38:21;;;;;;;3.30;1.50;;;20.80;97.00;;;;;;4993003;28;20521;-80
2022/05/31 09:41:14;;;;;;;3.60;1.48;;;20.50;97.60;;;;;;4975668;28;20181;-80
2022/05/31 09:43:47;;;;;;;3.53;2.58;;;20.30;96.50;;;;;;4993665;28;20268;-80
2022/05/31 09:46:52;;;;;;;9.20;2.20;;;20.00;96.20;;;;;;4993414;28;20252;-80
2022/05/31 09:49:36;;;;;;;4.70;1.40;;;20.10;96.60;;;;;;4992901;28;20545;-80
2022/05/31 09:52:07;;;;;;;4.07;1.52;;;20.10;97.10;;;;;;4975945;28;20177;-82
2022/05/31 09:58:36;;;;;;;4.50;1.50;;;20.60;98.10;;;;;;4993025;28;20584;-81
2022/05/31 10:01:04;;;;;;;3.97;1.30;;;20.70;97.20;;;;;;4991039;28;20737;-82
2022/05/31 10:03:45;;;;;;;1.33;1.23;;;20.40;97.00;;;;;;4993077;28;20752;-82
2022/05/31 10:06:24;;;;;;;4.72;1.45;;;20.30;97.10;;;;;;4993501;28;20177;-82
2022/05/31 10:08:52;;;;;;;3.95;1.25;;;20.20;96.60;;;;;;5034386;23;20219;-88
2022/05/31 10:11:32;;;;;;;1.50;1.30;;;20.40;96.20;;;;;;5036043;28;20210;-85
2022/05/31 10:13:59;;;;;;;1.55;1.15;;;20.70;95.40;;;;;;5035886;28;20167;-86
2022/05/31 10:16:37;;;;;;;1.48;1.10;;;20.70;95.00;;;;;;5053841;28;20207;-82
2022/05/31 10:19:05;;;;;;;1.95;1.27;;;20.70;95.70;;;;;;5035265;28;20190;-86
2022/05/31 10:21:36;;;;;;;2.35;0.90;;;20.80;94.90;;;;;;5053565;28;20218;-86
2022/05/31 10:24:08;;;;;;;3.00;1.30;;;21.00;94.60;;;;;;5035647;28;20175;-85
2022/05/31 10:26:38;;;;;;;1.48;0.90;;;20.90;95.10;;;;;;5036294;28;20204;-83
2022/05/31 10:29:33;;;;;;;1.20;0.93;;;20.70;94.60;;;;;;5038728;28;20263;-81
2022/05/31 10:31:59;;;;;;;1.13;1.02;;;20.60;95.90;;;;;;5056339;28;20175;-86
2022/05/31 10:34:40;;;;;;;3.65;1.45;;;20.30;94.60;;;;;;5058829;28;20685;-86
2022/05/31 10:37:22;;;;;;;3.10;1.00;;;20.20;95.00;;;;;;5038907;28;20647;-83
2022/05/31 10:40:01;;;;;;;1.80;1.25;;;20.40;94.90;;;;;;5057017;28;20224;-82
2022/05/31 10:42:27;;;;;;;5.40;0.80;;;20.70;94.60;;;;;;5038363;28;20181;-85
2022/05/31 10:44:56;;;;;;;15.07;1.65;;;20.70;95.20;;;;;;5056538;28;20167;-85
2022/05/31 10:47:24;;;;;;;2.90;1.27;;;20.50;95.30;;;;;;5056963;28;20169;-88
2022/05/31 10:49:51;;;;;;;2.40;1.40;;;20.60;95.10;;;;;;5038960;28;20187;-85
2022/05/31 10:52:24;;;;;;;1.75;1.02;;;20.80;95.20;;;;;;5039402;28;20504;-87
2022/05/31 10:55:11;;;;;;;6.30;1.25;;;21.00;94.60;;;;;;5039209;28;20214;-87
2022/05/31 10:57:57;;;;;;;10.80;2.15;;;21.30;94.30;;;;;;5039141;28;20183;-85
2022/05/31 11:00:29;;;;;;;4.57;1.40;;;21.10;93.70;;;;;;5056932;28;20697;-85
2022/05/31 11:03:24;;;;;;;4.57;1.17;;;21.10;94.00;;;;;;5057384;28;20226;-87
2022/05/31 11:06:17;;;;;;;1.58;0.88;;;21.70;94.00;;;;;;5039792;28;20204;-86
2022/05/31 11:12:34;;;;;;;0.80;0.80;;;22.00;93.10;;;;;;5047251;28;20206;-81
2022/05/31 11:15:18;;;;;;;2.72;1.10;;;22.40;92.60;;;;;;5037522;28;20206;-80
2022/05/31 11:17:52;;;;;;;2.60;0.60;;;22.40;92.20;;;;;;5036860;28;20232;-80
2022/05/31 11:20:48;;;;;;;1.63;0.88;;;22.60;92.40;;;;;;5057683;28;20171;-81
2022/05/31 11:23:46;;;;;;;1.35;0.70;;;22.90;91.90;;;;;;5030519;28;20273;-81
2022/05/31 11:26:29;;;;;;;3.88;1.20;;;22.60;91.60;;;;;;5037998;28;20224;-80
2022/05/31 11:29:26;;;;;;;1.63;0.80;;;22.10;91.60;;;;;;5054534;28;20277;-80
2022/05/31 11:31:58;;;;;;;2.22;0.88;;;21.60;91.70;;;;;;5054633;28;20529;-81
2022/05/31 11:34:58;;;;;;;0.63;0.60;;;21.30;91.90;;;;;;5037067;28;20206;-81
2022/05/31 11:37:33;;;;;;;1.05;0.70;;;21.60;91.90;;;;;;5054815;28;20191;-81
2022/05/31 11:40:27;;;;;;;1.77;1.42;;;21.90;91.90;;;;;;5036736;28;20208;-80
2022/05/31 11:43:02;;;;;;;1.70;1.08;;;22.00;93.30;;;;;;5036801;28;20202;-81
2022/05/31 11:45:41;;;;;;;4.70;1.27;;;22.00;91.80;;;;;;5037591;28;20526;-83
2022/05/31 11:49:09;;;;;;;6.93;1.05;;;22.10;91.60;;;;;;5037435;28;20199;-85
2022/05/31 11:51:43;;;;;;;6.68;1.00;;;22.40;91.90;;;;;;5022281;28;20190;-87
2022/05/31 11:54:29;;;;;;;2.28;0.90;;;22.40;91.60;;;;;;5055887;28;20162;-87
2022/05/31 11:57:25;;;;;;;2.63;0.55;;;22.30;92.10;;;;;;5037939;28;20290;-86
2022/05/31 12:00:01;;;;;;;6.00;0.95;;;22.10;91.40;;;;;;5037331;28;20245;-87
2022/05/31 12:02:49;;;;;;;1.67;0.65;;;22.20;91.40;;;;;;5040675;28;20170;-87
2022/05/31 12:05:25;;;;;;;1.25;0.70;;;22.50;91.40;;;;;;5037849;28;20537;-87
2022/05/31 12:08:31;;;;;;;8.23;0.80;;;22.50;90.40;;;;;;5038027;28;20721;-87
2022/05/31 12:11:02;;;;;;;4.68;1.00;;;22.30;91.70;;;;;;5029283;28;20183;-87
2022/05/31 12:13:29;;;;;;;4.25;0.90;;;22.10;91.10;;;;;;5038170;28;20167;-87
2022/05/31 12:15:55;;;;;;;3.80;0.93;;;21.90;92.20;;;;;;5037841;28;20264;-87
2022/05/31 12:18:51;;;;;;;6.43;0.90;;;21.90;91.50;;;;;;5037639;28;20195;-86
2022/05/31 12:21:30;;;;;;;4.30;0.68;;;21.60;91.70;;;;;;5036922;28;20263;-88
2022/05/31 12:24:10;;;;;;;3.15;0.65;;;21.90;91.20;;;;;;5037263;28;20225;-88
2022/05/31 12:26:44;;;;;;;0.73;0.65;;;22.00;90.40;;;;;;5055048;28;20174;-86
2022/05/31 12:29:27;;;;;;;1.08;0.82;;;21.80;90.90;;;;;;5036303;28;20209;-84
2022/05/31 12:32:31;;;;;;;2.15;0.90;;;21.90;90.90;;;;;;5054812;28;20623;-85
2022/05/31 12:34:59;;;;;;;2.50;0.80;;;22.10;92.00;;;;;;5036536;28;20167;-86
2022/05/31 12:37:25;;;;;;;13.95;1.00;;;22.20;91.20;;;;;;5037298;28;20179;-88
2022/05/31 12:40:41;;;;;;;1.92;0.80;;;22.10;90.50;;;;;;5035884;28;20195;-82
2022/05/31 12:43:34;;;;;;;3.80;0.82;;;21.90;90.20;;;;;;5029349;28;20175;-88
2022/05/31 12:46:18;;;;;;;4.88;1.15;;;22.10;90.70;;;;;;5036995;28;20178;-91
2022/05/31 12:48:58;;;;;;;3.50;1.15;;;22.40;90.40;;;;;;5037240;28;20198;-86
2022/05/31 12:51:24;;;;;;;1.58;0.80;;;22.40;90.80;;;;;;5055901;28;20170;-82
2022/05/31 12:53:50;;;;;;;4.80;1.60;;;22.10;91.00;;;;;;5040268;28;20221;-82
2022/05/31 12:56:34;;;;;;;7.28;1.23;;;21.90;91.30;;;;;;5035601;28;20675;-81
2022/05/31 12:59:01;;;;;;;1.83;1.23;;;21.90;91.80;;;;;;5040328;28;20195;-83
2022/05/31 13:01:27;;;;;;;9.38;1.33;;;21.80;91.80;;;;;;5036717;28;20167;-81
2022/05/31 13:04:28;;;;;;;7.35;1.10;;;21.70;91.60;;;;;;5038458;28;20174;-82
2022/05/31 13:07:10;;;;;;;6.18;1.60;;;21.30;92.30;;;;;;5021206;28;20233;-81
2022/05/31 13:09:43;;;;;;;1.25;0.93;;;21.00;93.70;;;;;;5043893;28;20213;-88
2022/05/31 13:20:56;;;;;;;1.63;1.00;;;19.60;99.90;;;;;;5058339;28;20226;-92
2022/05/31 13:23:35;;;;;;;3.50;1.33;;;19.60;99.90;;;;;;5039952;28;20257;-91
2022/05/31 13:26:28;;;;;;;2.15;1.08;;;19.70;99.90;;;;;;5034140;28;20171;-83
2022/05/31 13:28:57;;;;;;;11.48;1.00;;;20.40;99.90;;;;;;5034713;28;20571;-83
2022/05/31 13:31:25;;;;;;;1.40;0.73;;;21.20;99.90;;;;;;5033882;28;20558;-84
2022/05/31 13:33:59;;;;;;;1.48;0.60;;;21.70;98.70;;;;;;5033931;28;20173;-84
2022/05/31 13:36:28;;;;;;;5.43;0.70;;;21.60;97.30;;;;;;5034285;28;20202;-83
2022/05/31 13:39:08;;;;;;;2.50;0.80;;;21.70;97.80;;;;;;5034962;28;20265;-83
2022/05/31 13:42:01;;;;;;;0.63;0.63;;;21.80;96.30;;;;;;5034620;28;20177;-83
2022/05/31 13:44:39;;;;;;;1.58;0.73;;;21.60;97.00;;;;;;5034394;28;20186;-82
2022/05/31 13:47:08;;;;;;;2.00;0.63;;;21.60;94.80;;;;;;5035124;28;20175;-84